createdAt,value
2019-02-09T00:00:40.840Z,25.00
2019-02-09T00:04:53.673Z,21.53
2019-02-09T00:09:09.255Z,23.03
2019-02-09T00:13:21.984Z,33.77
2019-02-09T00:17:34.435Z,24.60
2019-02-09T00:21:47.219Z,27.93
2019-02-09T00:25:59.802Z,33.07
2019-02-09T00:30:12.628Z,31.33
2019-02-09T00:34:25.503Z,31.20
2019-02-09T00:38:37.834Z,32.67
2019-02-09T00:42:50.738Z,34.27
2019-02-09T00:47:03.296Z,27.13
2019-02-09T00:51:15.592Z,36.13
2019-02-09T00:55:28.684Z,30.47
2019-02-09T00:59:42.375Z,29.97
2019-02-09T01:03:54.689Z,24.00
2019-02-09T01:08:07.275Z,21.13
2019-02-09T01:12:20.029Z,18.33
2019-02-09T01:16:32.448Z,26.33
2019-02-09T01:20:45.332Z,17.43
2019-02-09T01:24:57.794Z,19.27
2019-02-09T01:29:10.225Z,17.67
2019-02-09T01:33:23.267Z,21.17
2019-02-09T01:37:35.925Z,20.80
2019-02-09T01:41:48.639Z,22.20
2019-02-09T01:46:01.096Z,19.93
2019-02-09T01:50:14.930Z,16.03
2019-02-09T01:54:27.728Z,22.67
2019-02-09T01:58:40.293Z,24.87
2019-02-09T02:02:52.704Z,20.17
2019-02-09T02:07:05.692Z,11.23
2019-02-09T02:11:19.342Z,17.77
2019-02-09T02:15:32.676Z,22.53
2019-02-09T02:19:46.361Z,19.80
2019-02-09T02:23:58.776Z,15.70
2019-02-09T02:28:11.183Z,17.17
2019-02-09T02:32:24.266Z,16.80
2019-02-09T02:36:36.732Z,21.50
2019-02-09T02:40:50.348Z,19.50
2019-02-09T02:45:02.601Z,28.47
2019-02-09T02:49:15.479Z,29.10
2019-02-09T02:53:27.846Z,24.73
2019-02-09T02:57:40.241Z,28.53
2019-02-09T03:01:53.036Z,23.43
2019-02-09T03:06:05.592Z,14.30
2019-02-09T03:10:18.312Z,30.87
2019-02-09T03:14:31.105Z,17.50
2019-02-09T03:18:43.670Z,19.47
2019-02-09T03:22:56.078Z,20.23
2019-02-09T03:27:08.867Z,24.73
2019-02-09T03:31:21.313Z,22.63
2019-02-09T03:35:33.891Z,18.77
2019-02-09T03:39:46.862Z,20.57
2019-02-09T03:43:59.335Z,19.40
2019-02-09T03:48:12.168Z,22.90
2019-02-09T03:52:24.629Z,24.37
2019-02-09T03:56:37.041Z,29.50
2019-02-09T04:00:55.372Z,22.90
2019-02-09T04:05:04.441Z,30.07
2019-02-09T04:09:17.165Z,28.33
2019-02-09T04:13:29.921Z,29.50
2019-02-09T04:17:42.808Z,27.43
2019-02-09T04:21:55.232Z,27.30
2019-02-09T04:26:07.637Z,25.57
2019-02-09T04:30:21.991Z,34.90
2019-02-09T04:34:34.777Z,23.10
2019-02-09T04:38:47.714Z,30.00
2019-02-09T04:43:00.176Z,30.30
2019-02-09T04:47:12.548Z,26.57
2019-02-09T04:51:25.370Z,26.57
2019-02-09T04:55:37.726Z,27.77
2019-02-09T04:59:50.717Z,25.33
2019-02-09T05:04:03.269Z,28.90
2019-02-09T05:08:15.683Z,27.90
2019-02-09T05:12:28.575Z,30.33
2019-02-09T05:16:41.095Z,30.40
2019-02-09T05:20:54.124Z,29.63
2019-02-09T05:25:06.930Z,32.73
2019-02-09T05:29:19.669Z,26.33
2019-02-09T05:33:32.292Z,26.77
2019-02-09T05:37:45.125Z,34.37
2019-02-09T05:41:57.577Z,24.63
2019-02-09T05:46:09.975Z,26.40
2019-02-09T05:50:22.950Z,30.43
2019-02-09T05:54:35.432Z,33.60
2019-02-09T05:58:47.736Z,28.63
2019-02-09T06:03:00.633Z,33.03
2019-02-09T06:07:13.103Z,28.50
2019-02-09T06:11:26.078Z,23.10
2019-02-09T06:15:38.640Z,23.80
2019-02-09T06:19:52.627Z,25.43
2019-02-09T06:24:05.672Z,27.67
2019-02-09T06:28:17.930Z,26.67
2019-02-09T06:32:30.813Z,28.60
2019-02-09T06:36:43.379Z,29.40
2019-02-09T06:40:55.890Z,34.27
2019-02-09T06:45:10.899Z,30.30
2019-02-09T06:49:23.757Z,23.13
2019-02-09T06:53:36.274Z,24.80
2019-02-09T06:57:48.521Z,26.17
2019-02-09T07:02:01.412Z,23.53
2019-02-09T07:06:13.871Z,24.13
2019-02-09T07:10:26.795Z,25.80
2019-02-09T07:14:39.414Z,34.40
2019-02-09T07:18:51.837Z,30.23
2019-02-09T07:23:04.433Z,32.00
2019-02-09T07:27:17.078Z,27.33
2019-02-09T07:31:29.600Z,31.83
2019-02-09T07:35:43.766Z,29.57
2019-02-09T07:39:56.743Z,21.00
2019-02-09T07:44:08.997Z,19.57
2019-02-09T07:48:21.877Z,28.83
2019-02-09T07:52:34.329Z,25.17
2019-02-09T07:56:46.804Z,29.13
2019-02-09T08:00:59.528Z,37.30
2019-02-09T08:05:12.829Z,28.73
2019-02-09T08:09:25.546Z,30.67
2019-02-09T08:13:37.934Z,32.73
2019-02-09T08:17:50.243Z,34.77
2019-02-09T08:22:03.219Z,27.13
2019-02-09T08:26:15.701Z,28.97
2019-02-09T08:30:31.360Z,34.40
2019-02-09T08:34:43.945Z,26.77
2019-02-09T08:38:56.493Z,21.80
2019-02-09T08:43:08.777Z,28.70
2019-02-09T08:47:21.528Z,28.87
2019-02-09T08:51:33.988Z,31.00
2019-02-09T08:55:46.391Z,19.67
2019-02-09T08:59:59.247Z,33.23
2019-02-09T09:04:11.744Z,27.97
2019-02-09T09:08:24.060Z,30.97
2019-02-09T09:12:36.945Z,30.30
2019-02-09T09:16:49.401Z,19.37
2019-02-09T09:21:03.734Z,26.03
2019-02-09T09:25:16.489Z,31.33
2019-02-09T09:29:28.861Z,30.77
2019-02-09T09:33:41.684Z,28.43
2019-02-09T09:37:55.866Z,25.10
2019-02-09T09:42:08.768Z,28.17
2019-02-09T09:46:21.333Z,31.03
2019-02-09T09:50:34.321Z,26.60
2019-02-09T09:54:46.876Z,30.93
2019-02-09T09:58:59.824Z,30.73
2019-02-09T10:03:12.428Z,25.83
2019-02-09T10:07:24.836Z,29.87
2019-02-09T10:11:37.729Z,26.70
2019-02-09T10:15:50.179Z,33.40
2019-02-09T10:20:02.491Z,23.47
2019-02-09T10:24:15.208Z,34.67
2019-02-09T10:28:28.006Z,30.90
2019-02-09T10:32:44.481Z,22.50
2019-02-09T10:36:54.980Z,27.27
2019-02-09T10:41:07.440Z,29.70
2019-02-09T10:45:21.656Z,30.73
2019-02-09T10:49:34.229Z,27.67
2019-02-09T10:53:46.632Z,30.70
2019-02-09T10:57:59.043Z,29.23
2019-02-09T11:02:11.900Z,26.53
2019-02-09T11:06:24.396Z,28.77
2019-02-09T11:10:36.811Z,34.10
2019-02-09T11:14:49.587Z,25.43
2019-02-09T11:19:02.162Z,30.70
2019-02-09T11:23:14.564Z,29.40
2019-02-09T11:27:28.154Z,31.77
2019-02-09T11:31:41.068Z,29.20
2019-02-09T11:35:53.662Z,25.73
2019-02-09T11:40:07.328Z,32.83
2019-02-09T11:44:19.613Z,24.43
2019-02-09T11:48:32.395Z,18.50
2019-02-09T11:52:44.960Z,27.57
2019-02-09T11:56:57.276Z,24.40
2019-02-09T12:01:10.062Z,24.63
2019-02-09T12:05:22.580Z,27.87
2019-02-09T12:09:35.398Z,27.93
2019-02-09T12:13:55.039Z,28.40
2019-02-09T12:18:02.121Z,26.40
2019-02-09T12:22:14.904Z,29.13
2019-02-09T12:26:27.253Z,27.47
2019-02-09T12:30:40.175Z,28.53
2019-02-09T12:34:52.769Z,25.93
2019-02-09T12:39:07.957Z,24.67
2019-02-09T12:43:20.284Z,25.83
2019-02-09T12:47:33.181Z,26.97
2019-02-09T12:51:45.631Z,21.07
2019-02-09T12:55:57.941Z,20.63
2019-02-09T13:00:15.482Z,21.53
2019-02-09T13:04:28.171Z,24.57
2019-02-09T13:08:41.057Z,27.47
2019-02-09T13:12:53.551Z,26.30
2019-02-09T13:17:05.987Z,26.00
2019-02-09T13:21:18.748Z,20.77
2019-02-09T13:25:31.204Z,23.77
2019-02-09T13:29:43.616Z,29.87
2019-02-09T13:33:56.508Z,26.17
2019-02-09T13:38:09.137Z,20.90
2019-02-09T13:42:22.063Z,22.87
2019-02-09T13:46:34.512Z,27.83
2019-02-09T13:50:47.952Z,25.30
2019-02-09T13:55:00.295Z,27.47
2019-02-09T13:59:13.252Z,30.53
2019-02-09T14:03:25.708Z,33.27
2019-02-09T14:07:38.022Z,29.20
2019-02-09T14:11:51.083Z,28.53
2019-02-09T14:16:08.138Z,27.17
2019-02-09T14:20:18.191Z,26.20
2019-02-09T14:24:30.652Z,25.43
2019-02-09T14:28:42.965Z,28.33
2019-02-09T14:32:55.856Z,30.93
2019-02-09T14:37:08.571Z,26.03
2019-02-09T14:41:21.480Z,31.07
2019-02-09T14:45:35.741Z,26.73
2019-02-09T14:49:48.583Z,26.63
2019-02-09T14:54:01.040Z,19.37
2019-02-09T14:58:14.392Z,29.77
2019-02-09T15:02:26.696Z,28.93
2019-02-09T15:06:39.005Z,22.27
2019-02-09T15:10:51.901Z,22.57
2019-02-09T15:15:04.525Z,26.93
2019-02-09T15:19:17.448Z,30.57
2019-02-09T15:23:29.800Z,28.33
2019-02-09T15:27:42.103Z,22.43
2019-02-09T15:31:54.512Z,24.47
2019-02-09T15:36:07.199Z,25.57
2019-02-09T15:40:20.659Z,34.97
2019-02-09T15:44:33.374Z,30.13
2019-02-09T15:48:46.192Z,29.20
2019-02-09T15:52:58.653Z,26.20
2019-02-09T15:57:11.561Z,24.93
2019-02-09T16:01:24.204Z,23.67
2019-02-09T16:05:36.613Z,28.47
2019-02-09T16:09:49.605Z,21.23
2019-02-09T16:14:02.414Z,24.00
2019-02-09T16:18:15.153Z,24.77
2019-02-09T16:22:27.615Z,29.50
2019-02-09T16:26:40.023Z,27.07
2019-02-09T16:30:52.909Z,29.53
2019-02-09T16:35:06.207Z,24.07
2019-02-09T16:39:18.997Z,27.17
2019-02-09T16:43:31.901Z,31.27
2019-02-09T16:47:44.553Z,24.90
2019-02-09T16:51:57.997Z,31.77
2019-02-09T16:56:10.432Z,22.43
2019-02-09T17:00:49.475Z,25.10
2019-02-09T17:05:01.879Z,22.07
2019-02-09T17:09:14.852Z,15.40
2019-02-09T17:13:27.416Z,20.57
2019-02-09T17:17:39.816Z,21.37
2019-02-09T17:21:52.618Z,21.97
2019-02-09T17:26:05.374Z,19.03
2019-02-09T17:30:20.812Z,20.17
2019-02-09T17:34:40.642Z,19.13
2019-02-09T17:38:47.749Z,21.40
2019-02-09T17:43:00.737Z,16.20
2019-02-09T17:47:13.189Z,8.20
2019-02-09T17:51:25.663Z,11.37
2019-02-09T17:55:38.388Z,15.17
2019-02-09T17:59:50.848Z,10.57
2019-02-09T18:04:03.152Z,12.40
2019-02-09T18:08:15.669Z,17.50
2019-02-09T18:12:28.920Z,18.30
2019-02-09T18:16:41.324Z,9.90
2019-02-09T18:20:54.160Z,6.97
2019-02-09T18:25:08.059Z,7.37
2019-02-09T18:29:20.308Z,12.10
2019-02-09T18:33:32.616Z,16.90
2019-02-09T18:37:44.933Z,32.60
2019-02-09T18:41:57.787Z,64.03
2019-02-09T18:46:10.296Z,60.40
2019-02-09T18:50:24.780Z,60.60
2019-02-09T18:54:37.546Z,56.30
2019-02-09T18:58:49.893Z,64.17
2019-02-09T19:03:02.876Z,50.80
2019-02-09T19:07:15.340Z,51.37
2019-02-09T19:11:28.320Z,57.20
2019-02-09T19:15:40.884Z,60.27
2019-02-09T19:19:53.763Z,54.90
2019-02-09T19:24:06.765Z,60.13
2019-02-09T19:28:19.521Z,70.33
2019-02-09T19:32:31.983Z,68.07
2019-02-09T19:36:44.396Z,63.43
2019-02-09T19:40:57.280Z,76.27
2019-02-09T19:45:12.660Z,59.53
2019-02-09T19:49:25.013Z,72.00
2019-02-09T19:53:37.328Z,65.77
2019-02-09T19:57:50.183Z,71.50
2019-02-09T20:02:02.676Z,65.40
2019-02-09T20:06:14.993Z,76.87
2019-02-09T20:10:29.936Z,53.80
2019-02-09T20:14:42.286Z,71.83
2019-02-09T20:18:55.066Z,75.47
2019-02-09T20:23:07.529Z,67.37
2019-02-09T20:27:19.889Z,71.13
2019-02-09T20:31:32.725Z,65.73
2019-02-09T20:35:45.181Z,71.10
2019-02-09T20:39:58.172Z,71.83
2019-02-09T20:44:10.925Z,64.60
2019-02-09T20:48:23.812Z,70.07
2019-02-09T20:52:36.274Z,78.23
2019-02-09T20:56:48.687Z,59.53
2019-02-09T21:01:01.646Z,67.40
2019-02-09T21:05:15.188Z,63.37
2019-02-09T21:09:27.678Z,56.27
2019-02-09T21:13:40.088Z,59.53
2019-02-09T21:17:52.423Z,60.67
2019-02-09T21:22:05.392Z,64.13
2019-02-09T21:26:17.641Z,60.20
2019-02-09T21:30:30.811Z,63.80
2019-02-09T21:34:43.307Z,59.97
2019-02-09T21:38:55.708Z,61.30
2019-02-09T21:43:08.659Z,69.27
2019-02-09T21:47:21.151Z,54.83
2019-02-09T21:51:33.468Z,65.87
2019-02-09T21:55:46.355Z,58.63
2019-02-09T21:59:58.828Z,51.13
2019-02-09T22:04:11.178Z,58.73
2019-02-09T22:08:23.912Z,55.03
2019-02-09T22:12:36.547Z,57.10
2019-02-09T22:16:49.054Z,66.50
2019-02-09T22:21:01.827Z,59.80
2019-02-09T22:25:16.749Z,47.93
2019-02-09T22:29:29.200Z,51.63
2019-02-09T22:33:41.675Z,53.93
2019-02-09T22:37:54.401Z,61.17
2019-02-09T22:42:07.329Z,59.83
2019-02-09T22:46:20.052Z,58.00
2019-02-09T22:50:34.395Z,65.17
2019-02-09T22:54:47.151Z,55.27
2019-02-09T22:58:59.496Z,53.10
2019-02-09T23:03:12.721Z,45.50
2019-02-09T23:07:35.500Z,32.77
2019-02-09T23:11:49.191Z,33.77
2019-02-09T23:16:01.643Z,36.93
2019-02-09T23:20:15.189Z,39.23
2019-02-09T23:24:27.489Z,31.60
2019-02-09T23:28:39.808Z,28.87
2019-02-09T23:32:52.596Z,23.97
2019-02-09T23:37:05.215Z,25.40
2019-02-09T23:41:18.047Z,29.77
2019-02-09T23:45:30.728Z,23.60
2019-02-09T23:49:44.375Z,23.27
2019-02-09T23:53:56.661Z,26.47
2019-02-09T23:58:09.439Z,26.17
